createdAt,value
2018-12-27T00:52:43.915Z,6.73
2018-12-27T00:55:25.867Z,6.72
2018-12-27T00:58:08.471Z,6.72
2018-12-27T01:01:02.043Z,6.71
2018-12-27T01:03:43.298Z,6.70
2018-12-27T01:06:25.386Z,6.67
2018-12-27T01:09:07.260Z,6.63
2018-12-27T01:11:47.146Z,6.61
2018-12-27T01:14:26.062Z,6.61
2018-12-27T01:17:07.051Z,6.62
2018-12-27T01:19:53.372Z,6.65
2018-12-27T01:22:35.211Z,6.67
2018-12-27T01:25:19.718Z,6.70
2018-12-27T01:28:01.540Z,6.69
2018-12-27T01:30:41.710Z,6.66
2018-12-27T01:33:32.492Z,6.66
2018-12-27T01:36:12.417Z,6.66
2018-12-27T01:38:53.190Z,6.63
2018-12-27T01:41:35.031Z,6.64
2018-12-27T01:44:17.431Z,6.64
2018-12-27T01:46:58.127Z,6.63
2018-12-27T01:49:38.472Z,6.64
2018-12-27T01:52:21.726Z,6.63
2018-12-27T01:55:03.005Z,6.65
2018-12-27T01:57:42.388Z,6.65
2018-12-27T02:00:22.577Z,6.64
2018-12-27T02:03:03.055Z,6.64
2018-12-27T02:05:43.130Z,6.63
2018-12-27T02:08:23.207Z,6.63
2018-12-27T02:11:04.806Z,6.64
2018-12-27T02:13:44.365Z,6.63
2018-12-27T02:16:28.239Z,6.62
2018-12-27T02:19:08.985Z,6.62
2018-12-27T02:21:54.715Z,6.62
2018-12-27T02:24:32.364Z,6.60
2018-12-27T02:27:10.968Z,6.61
2018-12-27T02:29:51.407Z,6.61
2018-12-27T02:32:31.185Z,6.61
2018-12-27T02:35:11.746Z,6.62
2018-12-27T02:37:53.182Z,6.63
2018-12-27T02:40:33.013Z,6.52
2018-12-27T02:43:13.090Z,6.61
2018-12-27T02:45:52.302Z,6.61
2018-12-27T02:48:32.106Z,6.60
2018-12-27T02:51:11.079Z,6.61
2018-12-27T02:53:51.087Z,6.63
2018-12-27T02:56:31.104Z,6.65
2018-12-27T02:59:11.145Z,6.67
2018-12-27T03:01:50.960Z,6.66
2018-12-27T03:04:31.074Z,6.64
2018-12-27T03:07:10.713Z,6.63
2018-12-27T03:09:54.980Z,6.62
2018-12-27T03:12:35.888Z,6.64
2018-12-27T03:15:15.626Z,6.61
2018-12-27T03:17:55.171Z,6.62
2018-12-27T03:20:38.425Z,6.63
2018-12-27T03:23:17.943Z,6.64
2018-12-27T03:26:00.596Z,6.64
2018-12-27T03:28:40.908Z,6.66
2018-12-27T03:31:24.427Z,6.65
2018-12-27T03:34:05.667Z,6.68
2018-12-27T03:36:46.959Z,6.68
2018-12-27T03:39:29.094Z,6.68
2018-12-27T03:42:11.256Z,6.68
2018-12-27T03:44:51.073Z,6.67
2018-12-27T03:47:32.448Z,6.66
2018-12-27T03:50:12.857Z,6.67
2018-12-27T03:52:54.034Z,6.67
2018-12-27T03:55:33.074Z,6.67
2018-12-27T03:58:20.307Z,6.68
2018-12-27T04:01:00.868Z,6.69
2018-12-27T04:03:40.639Z,6.70
2018-12-27T04:06:22.172Z,6.69
2018-12-27T04:09:02.461Z,6.70
2018-12-27T04:11:42.450Z,6.69
2018-12-27T04:14:22.653Z,6.68
2018-12-27T04:17:05.765Z,6.67
2018-12-27T04:19:47.438Z,6.64
2018-12-27T04:22:27.037Z,6.63
2018-12-27T04:25:12.823Z,6.61
2018-12-27T04:27:58.184Z,6.60
2018-12-27T04:30:38.186Z,6.60
2018-12-27T04:33:24.188Z,6.57
2018-12-27T04:36:04.018Z,6.56
2018-12-27T04:38:43.665Z,6.55
2018-12-27T04:41:22.763Z,6.57
2018-12-27T04:44:03.600Z,6.56
2018-12-27T04:46:43.389Z,6.54
2018-12-27T04:49:22.310Z,6.53
2018-12-27T04:52:01.960Z,6.52
2018-12-27T04:54:40.762Z,6.52
2018-12-27T04:57:20.804Z,6.52
2018-12-27T04:59:59.244Z,6.41
2018-12-27T05:02:39.072Z,6.52
2018-12-27T05:05:17.004Z,6.53
2018-12-27T05:07:56.275Z,6.41
2018-12-27T05:10:38.022Z,6.55
2018-12-27T05:13:17.236Z,6.54
2018-12-27T05:15:56.895Z,6.54
2018-12-27T05:18:40.247Z,6.55
2018-12-27T05:21:20.930Z,6.52
2018-12-27T05:24:03.327Z,6.54
2018-12-27T05:26:44.834Z,6.54
2018-12-27T05:29:24.304Z,6.55
2018-12-27T05:32:05.796Z,6.54
2018-12-27T05:34:46.793Z,6.54
2018-12-27T05:37:26.083Z,6.54
2018-12-27T05:40:05.652Z,6.53
2018-12-27T05:42:46.558Z,6.53
2018-12-27T05:45:28.286Z,6.54
2018-12-27T05:48:06.343Z,6.53
2018-12-27T05:50:46.619Z,6.53
2018-12-27T05:53:27.580Z,6.53
2018-12-27T05:56:06.568Z,6.55
2018-12-27T05:58:46.684Z,6.56
2018-12-27T06:01:38.842Z,6.55
2018-12-27T06:04:22.144Z,6.56
2018-12-27T06:07:02.428Z,6.56
2018-12-27T06:09:42.942Z,6.58
2018-12-27T06:12:24.583Z,6.60
2018-12-27T06:15:04.156Z,6.61
2018-12-27T06:17:48.270Z,6.63
2018-12-27T06:20:35.631Z,6.64
2018-12-27T06:23:18.163Z,6.65
2018-12-27T06:25:58.092Z,6.65
2018-12-27T06:28:47.495Z,6.65
2018-12-27T06:31:37.971Z,6.65
2018-12-27T06:34:43.313Z,6.64
2018-12-27T06:37:39.275Z,6.65
2018-12-27T06:40:17.529Z,6.64
2018-12-27T06:43:04.089Z,6.65
2018-12-27T06:45:59.204Z,6.67
2018-12-27T06:48:39.468Z,6.65
2018-12-27T06:51:20.365Z,6.63
2018-12-27T06:54:07.327Z,6.63
2018-12-27T06:56:48.009Z,6.62
2018-12-27T06:59:34.787Z,6.60
2018-12-27T07:02:21.017Z,6.60
2018-12-27T07:05:18.010Z,6.56
2018-12-27T07:07:59.515Z,6.44
2018-12-27T07:10:50.307Z,6.54
2018-12-27T07:13:28.372Z,6.53
2018-12-27T07:16:11.518Z,6.53
2018-12-27T07:18:50.860Z,6.53
2018-12-27T07:21:32.997Z,6.51
2018-12-27T07:24:30.425Z,6.51
2018-12-27T07:27:21.881Z,6.51
2018-12-27T07:30:13.140Z,6.50
2018-12-27T07:32:53.236Z,6.50
2018-12-27T07:35:37.719Z,6.51
2018-12-27T07:38:26.554Z,6.55
2018-12-27T07:41:08.661Z,6.54
2018-12-27T07:43:49.728Z,6.55
2018-12-27T07:46:31.576Z,6.54
2018-12-27T07:49:24.245Z,6.55
2018-12-27T07:52:05.404Z,6.53
2018-12-27T07:54:57.739Z,6.52
2018-12-27T07:57:39.717Z,6.50
2018-12-27T08:00:21.835Z,6.48
2018-12-27T08:03:07.677Z,6.50
2018-12-27T08:05:48.465Z,6.52
2018-12-27T08:08:44.664Z,6.53
2018-12-27T08:11:24.230Z,6.52
2018-12-27T08:14:05.323Z,6.49
2018-12-27T08:16:53.326Z,6.51
2018-12-27T08:19:31.545Z,6.54
2018-12-27T08:22:28.064Z,6.54
2018-12-27T08:25:09.176Z,6.55
2018-12-27T08:27:48.965Z,6.57
2018-12-27T08:30:31.184Z,6.59
2018-12-27T08:33:18.292Z,6.62
2018-12-27T08:35:54.111Z,6.65
2018-12-27T08:38:29.622Z,6.66
2018-12-27T08:41:07.270Z,6.64
2018-12-27T08:43:48.169Z,6.65
2018-12-27T08:46:27.584Z,6.66
2018-12-27T08:49:09.682Z,6.66
2018-12-27T08:51:52.728Z,6.69
2018-12-27T08:54:33.056Z,6.70
2018-12-27T08:57:31.054Z,6.71
2018-12-27T09:00:10.798Z,6.72
2018-12-27T09:02:56.685Z,6.72
2018-12-27T09:05:43.004Z,6.74
2018-12-27T09:08:28.833Z,6.75
2018-12-27T09:11:11.969Z,6.76
2018-12-27T09:14:02.359Z,6.78
2018-12-27T09:16:46.902Z,6.78
2018-12-27T09:19:31.164Z,6.80
2018-12-27T09:22:14.378Z,6.84
2018-12-27T09:25:07.893Z,6.86
2018-12-27T09:28:02.058Z,6.88
2018-12-27T09:30:41.714Z,6.87
2018-12-27T09:33:36.932Z,6.87
2018-12-27T09:36:16.187Z,6.89
2018-12-27T09:38:55.264Z,6.85
2018-12-27T09:41:37.952Z,6.84
2018-12-27T09:44:17.085Z,6.83
2018-12-27T09:47:07.605Z,6.83
2018-12-27T09:49:49.559Z,6.82
2018-12-27T09:52:29.244Z,6.85
2018-12-27T09:55:09.534Z,6.91
2018-12-27T09:57:50.359Z,6.92
2018-12-27T10:00:34.819Z,6.89
2018-12-27T10:03:14.796Z,6.89
2018-12-27T10:08:52.602Z,6.89
2018-12-27T10:11:42.328Z,6.88
2018-12-27T10:14:41.023Z,6.87
2018-12-27T10:17:53.722Z,6.86
2018-12-27T10:20:50.475Z,6.87
2018-12-27T10:23:51.134Z,6.83
2018-12-27T10:26:37.168Z,6.83
2018-12-27T10:29:43.043Z,6.83
2018-12-27T10:32:37.866Z,6.85
2018-12-27T10:35:50.129Z,6.86
2018-12-27T10:38:52.025Z,6.90
2018-12-27T10:42:05.789Z,6.97
2018-12-27T10:48:25.779Z,7.00
2018-12-27T10:54:58.187Z,7.02
2018-12-27T10:58:06.123Z,7.02
2018-12-27T11:01:28.874Z,7.04
2018-12-27T11:05:05.852Z,7.09
2018-12-27T11:07:50.146Z,7.11
2018-12-27T11:10:32.921Z,7.10
2018-12-27T11:13:13.075Z,7.08
2018-12-27T11:15:55.002Z,7.06
2018-12-27T11:18:37.594Z,7.05
2018-12-27T11:21:19.374Z,7.05
2018-12-27T11:23:58.623Z,7.03
2018-12-27T11:26:40.782Z,7.03
2018-12-27T11:30:07.349Z,7.01
2018-12-27T11:33:10.941Z,7.00
2018-12-27T11:35:57.433Z,7.00
2018-12-27T11:38:55.634Z,7.01
2018-12-27T11:41:46.289Z,7.04
2018-12-27T11:44:53.801Z,7.03
2018-12-27T11:48:02.668Z,7.05
2018-12-27T11:51:07.012Z,7.05
2018-12-27T11:54:14.885Z,7.06
2018-12-27T11:57:21.883Z,7.05
2018-12-27T12:00:15.730Z,7.06
2018-12-27T12:03:15.071Z,7.06
2018-12-27T12:06:08.664Z,7.05
2018-12-27T12:09:02.963Z,7.09
2018-12-27T12:11:47.403Z,7.09
2018-12-27T12:18:04.494Z,7.14
2018-12-27T12:21:18.054Z,7.15
2018-12-27T12:24:00.889Z,7.18
2018-12-27T12:26:56.362Z,7.21
2018-12-27T12:30:09.493Z,7.23
2018-12-27T12:32:58.567Z,7.27
2018-12-27T15:08:49.420Z,7.39
